createdAt,value
2019-01-12T00:02:07.715Z,14.33
2019-01-12T00:04:39.318Z,13.20
2019-01-12T00:07:12.359Z,13.73
2019-01-12T00:09:43.919Z,15.33
2019-01-12T00:12:15.336Z,14.73
2019-01-12T00:14:46.804Z,13.53
2019-01-12T00:17:18.266Z,11.77
2019-01-12T00:19:50.239Z,13.33
2019-01-12T00:22:21.885Z,14.77
2019-01-12T00:27:13.986Z,12.43
2019-01-12T00:29:45.426Z,14.07
2019-01-12T00:32:17.429Z,15.60
2019-01-12T00:34:52.054Z,15.33
2019-01-12T00:37:23.578Z,14.97
2019-01-12T00:39:56.560Z,14.17
2019-01-12T00:42:28.319Z,14.33
2019-01-12T00:45:00.758Z,15.80
2019-01-12T00:47:32.790Z,13.00
2019-01-12T00:50:06.228Z,16.07
2019-01-12T00:52:37.602Z,16.37
2019-01-12T00:55:09.436Z,18.50
2019-01-12T00:57:40.993Z,18.87
2019-01-12T01:00:18.930Z,17.90
2019-01-12T01:02:50.512Z,15.40
2019-01-12T01:05:22.313Z,15.47
2019-01-12T01:07:53.896Z,14.50
2019-01-12T01:10:25.695Z,18.63
2019-01-12T01:12:57.919Z,15.77
2019-01-12T01:15:29.578Z,15.43
2019-01-12T01:18:01.302Z,21.83
2019-01-12T01:20:34.658Z,14.83
2019-01-12T01:23:06.368Z,17.47
2019-01-12T01:25:38.112Z,19.37
2019-01-12T01:28:10.783Z,14.27
2019-01-12T01:30:42.970Z,15.60
2019-01-12T01:33:16.012Z,15.83
2019-01-12T01:35:48.849Z,17.00
2019-01-12T01:38:20.341Z,17.00
2019-01-12T01:40:52.756Z,16.17
2019-01-12T01:43:24.128Z,17.53
2019-01-12T01:45:55.545Z,18.57
2019-01-12T01:48:27.339Z,21.00
2019-01-12T01:50:58.807Z,19.30
2019-01-12T01:53:30.793Z,20.70
2019-01-12T01:56:03.227Z,19.90
2019-01-12T01:58:36.007Z,20.40
2019-01-12T02:01:08.830Z,17.93
2019-01-12T02:03:40.239Z,20.13
2019-01-12T02:06:13.855Z,18.23
2019-01-12T02:08:45.231Z,21.03
2019-01-12T02:11:16.601Z,22.83
2019-01-12T02:13:48.044Z,21.73
2019-01-12T02:16:20.779Z,19.70
2019-01-12T02:18:53.169Z,22.80
2019-01-12T02:21:25.033Z,22.87
2019-01-12T02:23:56.829Z,21.73
2019-01-12T02:26:28.417Z,22.20
2019-01-12T02:28:59.921Z,26.17
2019-01-12T02:31:31.297Z,24.20
2019-01-12T02:34:03.436Z,24.93
2019-01-12T02:36:40.388Z,24.50
2019-01-12T02:39:12.359Z,22.90
2019-01-12T02:41:44.066Z,23.97
2019-01-12T02:44:15.539Z,18.87
2019-01-12T02:46:47.480Z,21.87
2019-01-12T02:49:19.424Z,21.23
2019-01-12T02:51:50.936Z,19.83
2019-01-12T02:54:22.898Z,23.60
2019-01-12T02:56:54.336Z,21.37
2019-01-12T02:59:27.421Z,19.23
2019-01-12T03:01:58.925Z,21.27
2019-01-12T03:04:31.425Z,23.17
2019-01-12T03:07:03.778Z,21.37
2019-01-12T03:09:35.504Z,21.77
2019-01-12T03:12:07.255Z,25.37
2019-01-12T03:14:39.229Z,21.70
2019-01-12T03:17:11.166Z,24.53
2019-01-12T03:19:42.622Z,24.13
2019-01-12T03:22:14.625Z,21.67
2019-01-12T03:24:46.054Z,25.83
2019-01-12T03:27:17.790Z,23.60
2019-01-12T03:29:49.502Z,22.93
2019-01-12T03:32:22.666Z,24.67
2019-01-12T03:34:56.531Z,24.43
2019-01-12T03:37:28.075Z,25.70
2019-01-12T03:40:00.962Z,23.23
2019-01-12T03:42:32.302Z,24.70
2019-01-12T03:45:05.551Z,24.73
2019-01-12T03:47:36.962Z,21.13
2019-01-12T03:50:10.344Z,21.33
2019-01-12T03:52:42.104Z,23.30
2019-01-12T03:55:13.930Z,21.80
2019-01-12T03:57:45.375Z,26.03
2019-01-12T04:00:27.076Z,19.03
2019-01-12T04:03:00.277Z,21.47
2019-01-12T04:05:31.968Z,25.50
2019-01-12T04:08:04.538Z,19.47
2019-01-12T04:10:36.793Z,26.00
2019-01-12T04:13:08.293Z,23.77
2019-01-12T04:15:39.983Z,25.03
2019-01-12T04:18:11.995Z,24.07
2019-01-12T04:20:43.547Z,20.17
2019-01-12T04:23:15.001Z,22.77
2019-01-12T04:25:47.467Z,21.13
2019-01-12T04:28:19.287Z,19.37
2019-01-12T04:30:52.385Z,21.70
2019-01-12T04:33:24.218Z,20.17
2019-01-12T04:35:55.681Z,20.77
2019-01-12T04:38:27.185Z,22.03
2019-01-12T04:40:59.065Z,21.50
2019-01-12T04:43:32.378Z,22.63
2019-01-12T04:46:04.172Z,23.90
2019-01-12T04:48:37.524Z,18.80
2019-01-12T04:51:10.849Z,20.87
2019-01-12T04:53:42.320Z,20.60
2019-01-12T04:56:14.820Z,19.37
2019-01-12T04:58:46.201Z,20.07
2019-01-12T05:01:17.929Z,20.63
2019-01-12T05:03:49.546Z,20.93
2019-01-12T05:06:21.436Z,19.73
2019-01-12T05:08:53.066Z,17.83
2019-01-12T05:11:26.077Z,19.10
2019-01-12T05:13:57.789Z,19.40
2019-01-12T05:16:29.315Z,18.23
2019-01-12T05:19:00.910Z,21.83
2019-01-12T05:21:33.922Z,18.23
2019-01-12T05:24:07.376Z,18.77
2019-01-12T05:26:39.251Z,17.77
2019-01-12T05:29:10.605Z,18.33
2019-01-12T05:31:42.348Z,19.73
2019-01-12T05:34:13.834Z,15.70
2019-01-12T05:36:45.726Z,17.00
2019-01-12T05:39:17.083Z,16.17
2019-01-12T05:41:49.003Z,16.03
2019-01-12T05:44:21.022Z,16.77
2019-01-12T05:46:52.608Z,14.30
2019-01-12T05:49:25.570Z,12.90
2019-01-12T05:51:57.002Z,14.67
2019-01-12T05:54:28.641Z,16.57
2019-01-12T05:57:00.480Z,17.83
2019-01-12T05:59:33.020Z,17.83
2019-01-12T06:02:04.406Z,14.73
2019-01-12T06:04:35.864Z,16.83
2019-01-12T06:07:07.387Z,16.70
2019-01-12T06:09:39.302Z,17.93
2019-01-12T06:12:11.206Z,15.60
2019-01-12T06:14:42.658Z,15.87
2019-01-12T06:17:14.599Z,16.50
2019-01-12T06:19:46.034Z,16.93
2019-01-12T06:22:17.982Z,20.00
2019-01-12T06:24:49.608Z,16.93
2019-01-12T06:27:21.455Z,19.57
2019-01-12T06:29:53.030Z,14.70
2019-01-12T06:32:24.561Z,17.77
2019-01-12T06:34:59.443Z,17.77
2019-01-12T06:37:30.868Z,17.73
2019-01-12T06:40:02.358Z,18.60
2019-01-12T06:42:33.879Z,18.90
2019-01-12T06:45:07.058Z,17.57
2019-01-12T06:47:38.710Z,19.97
2019-01-12T06:50:11.685Z,19.47
2019-01-12T06:52:43.567Z,18.93
2019-01-12T06:55:16.011Z,19.90
2019-01-12T06:57:47.634Z,19.83
2019-01-12T07:00:20.495Z,19.00
2019-01-12T07:02:52.305Z,20.97
2019-01-12T07:05:24.262Z,19.93
2019-01-12T07:07:55.827Z,18.50
2019-01-12T07:10:27.411Z,18.83
2019-01-12T07:13:00.121Z,17.53
2019-01-12T07:15:33.543Z,20.63
2019-01-12T07:18:08.900Z,17.90
2019-01-12T07:20:38.189Z,17.10
2019-01-12T07:23:11.497Z,21.43
2019-01-12T07:25:44.171Z,19.70
2019-01-12T07:28:17.297Z,17.13
2019-01-12T07:30:48.774Z,14.97
2019-01-12T07:33:20.297Z,16.30
2019-01-12T07:35:52.843Z,17.97
2019-01-12T07:38:24.464Z,20.40
2019-01-12T07:40:56.181Z,23.10
2019-01-12T07:43:28.792Z,12.70
2019-01-12T07:46:00.579Z,16.80
2019-01-12T07:48:32.288Z,14.97
2019-01-12T07:51:05.712Z,15.70
2019-01-12T07:53:37.881Z,15.10
2019-01-12T07:56:10.132Z,13.80
2019-01-12T07:58:41.695Z,13.17
2019-01-12T08:01:13.176Z,15.30
2019-01-12T08:03:44.854Z,11.53
2019-01-12T08:06:16.741Z,11.73
2019-01-12T08:08:48.614Z,12.30
2019-01-12T08:11:20.141Z,10.43
2019-01-12T08:13:52.236Z,12.60
2019-01-12T08:16:24.004Z,9.93
2019-01-12T08:18:56.209Z,9.83
2019-01-12T08:21:27.652Z,10.67
2019-01-12T08:23:59.028Z,10.53
2019-01-12T08:26:31.270Z,8.87
2019-01-12T08:29:03.054Z,12.73
2019-01-12T08:31:34.582Z,13.43
2019-01-12T08:34:07.936Z,9.90
2019-01-12T08:36:40.145Z,10.27
2019-01-12T08:39:12.344Z,8.67
2019-01-12T08:41:44.815Z,11.37
2019-01-12T08:46:36.587Z,9.43
2019-01-12T08:49:09.122Z,9.87
2019-01-12T08:51:40.671Z,10.27
2019-01-12T08:54:13.372Z,6.90
2019-01-12T08:56:46.583Z,8.30
2019-01-12T08:59:18.634Z,8.50
2019-01-12T09:01:50.814Z,7.37
2019-01-12T09:04:22.732Z,7.50
2019-01-12T09:06:54.711Z,8.30
2019-01-12T09:09:26.178Z,7.63
2019-01-12T09:11:57.710Z,8.60
2019-01-12T09:14:29.155Z,7.93
2019-01-12T09:17:01.256Z,7.10
2019-01-12T09:19:32.863Z,7.07
2019-01-12T09:22:04.895Z,6.57
2019-01-12T09:24:36.548Z,6.77
2019-01-12T09:27:08.089Z,8.17
2019-01-12T09:29:39.755Z,5.93
2019-01-12T09:32:11.268Z,7.17
2019-01-12T09:34:42.647Z,5.13
2019-01-12T09:37:14.084Z,6.63
2019-01-12T09:39:45.688Z,8.47
2019-01-12T09:42:17.383Z,8.03
2019-01-12T09:44:49.059Z,5.43
2019-01-12T09:47:20.509Z,6.57
2019-01-12T09:49:51.879Z,5.57
2019-01-12T09:52:23.823Z,8.13
2019-01-12T09:54:55.673Z,5.17
2019-01-12T09:57:27.275Z,5.23
2019-01-12T10:00:00.213Z,4.83
2019-01-12T10:02:31.637Z,4.83
2019-01-12T10:05:03.447Z,4.43
2019-01-12T10:07:36.481Z,5.60
2019-01-12T10:10:11.447Z,4.90
2019-01-12T10:12:43.178Z,5.43
2019-01-12T10:15:15.225Z,6.27
2019-01-12T10:17:48.023Z,5.30
2019-01-12T10:20:20.621Z,4.97
2019-01-12T10:22:53.276Z,6.77
2019-01-12T10:25:25.244Z,5.90
2019-01-12T10:27:57.755Z,6.33
2019-01-12T10:30:30.188Z,4.33
2019-01-12T10:33:01.666Z,9.47
2019-01-12T10:35:33.055Z,7.83
2019-01-12T10:38:06.342Z,4.73
2019-01-12T10:40:38.176Z,7.50
2019-01-12T10:43:09.588Z,5.37
2019-01-12T10:45:41.526Z,5.83
2019-01-12T10:48:14.550Z,5.73
2019-01-12T10:50:46.055Z,7.33
2019-01-12T10:53:19.576Z,5.20
2019-01-12T10:55:51.513Z,8.20
2019-01-12T10:58:23.004Z,4.43
2019-01-12T11:00:54.603Z,4.57
2019-01-12T11:03:26.665Z,4.47
2019-01-12T11:05:58.064Z,8.47
2019-01-12T11:08:29.905Z,7.40
2019-01-12T11:11:02.516Z,5.67
2019-01-12T11:13:34.198Z,6.57
2019-01-12T11:16:06.802Z,6.23
2019-01-12T11:18:38.266Z,7.17
2019-01-12T11:21:09.855Z,13.77
2019-01-12T11:23:41.853Z,9.23
2019-01-12T11:26:13.533Z,6.70
2019-01-12T11:28:45.428Z,6.70
2019-01-12T11:31:19.860Z,7.00
2019-01-12T11:33:52.344Z,6.33
2019-01-12T11:36:24.975Z,6.57
2019-01-12T11:38:56.837Z,7.30
2019-01-12T11:41:29.350Z,7.77
2019-01-12T11:44:00.815Z,8.53
2019-01-12T11:46:32.737Z,6.60
2019-01-12T11:49:04.358Z,8.97
2019-01-12T11:51:37.549Z,6.17
2019-01-12T11:54:09.098Z,7.37
2019-01-12T11:56:40.900Z,5.73
2019-01-12T11:59:12.808Z,7.70
2019-01-12T12:01:44.775Z,8.30
2019-01-12T12:04:16.594Z,7.37
2019-01-12T12:06:49.499Z,7.30
2019-01-12T12:09:22.001Z,7.97
2019-01-12T12:11:55.783Z,8.93
2019-01-12T12:14:28.202Z,9.60
2019-01-12T12:16:59.985Z,7.87
2019-01-12T12:19:31.608Z,6.67
2019-01-12T12:22:04.998Z,9.03
2019-01-12T12:24:38.431Z,7.77
2019-01-12T12:27:09.939Z,7.67
2019-01-12T12:29:41.492Z,6.87
2019-01-12T12:32:14.281Z,9.03
2019-01-12T12:34:45.774Z,8.17
2019-01-12T12:37:17.417Z,6.50
2019-01-12T12:39:49.045Z,7.37
2019-01-12T12:42:20.461Z,8.53
2019-01-12T12:44:52.494Z,6.67
2019-01-12T12:47:25.159Z,7.13
2019-01-12T12:49:58.205Z,6.27
2019-01-12T12:52:30.003Z,8.10
2019-01-12T12:55:01.715Z,5.50
2019-01-12T12:57:33.362Z,6.53
2019-01-12T13:00:07.670Z,8.37
2019-01-12T13:02:39.268Z,6.13
2019-01-12T13:05:11.392Z,7.90
2019-01-12T13:07:43.283Z,6.50
2019-01-12T13:10:20.242Z,7.33
2019-01-12T13:12:51.582Z,4.53
2019-01-12T13:15:23.519Z,6.07
2019-01-12T13:17:55.149Z,9.37
2019-01-12T13:20:28.525Z,8.83
2019-01-12T13:23:00.444Z,7.40
2019-01-12T13:25:34.085Z,6.63
2019-01-12T13:28:06.364Z,6.83
2019-01-12T13:30:38.219Z,10.10
2019-01-12T13:33:10.068Z,8.60
2019-01-12T13:35:41.692Z,6.27
2019-01-12T13:38:13.676Z,8.70
2019-01-12T13:40:45.562Z,8.13
2019-01-12T13:43:17.480Z,9.43
2019-01-12T13:45:49.044Z,9.63
2019-01-12T13:48:20.994Z,8.67
2019-01-12T13:50:53.760Z,7.00
2019-01-12T13:53:25.534Z,9.00
2019-01-12T13:55:56.958Z,9.60
2019-01-12T13:58:29.763Z,9.70
2019-01-12T14:01:01.311Z,9.63
2019-01-12T14:03:33.389Z,6.87
2019-01-12T14:06:05.377Z,8.93
2019-01-12T14:08:36.776Z,8.27
2019-01-12T14:11:08.447Z,8.30
2019-01-12T14:13:40.523Z,7.53
2019-01-12T14:16:12.171Z,8.40
2019-01-12T14:18:43.686Z,7.03
2019-01-12T14:21:16.758Z,8.80
2019-01-12T14:23:48.608Z,8.80
2019-01-12T14:26:22.352Z,8.43
2019-01-12T14:28:54.363Z,9.07
2019-01-12T14:31:26.314Z,6.93
2019-01-12T14:33:58.259Z,7.33
2019-01-12T14:36:29.852Z,10.30
2019-01-12T14:39:01.433Z,7.97
2019-01-12T14:41:34.654Z,11.37
2019-01-12T14:44:06.360Z,7.80
2019-01-12T14:46:37.942Z,9.60
2019-01-12T14:49:09.566Z,6.63
2019-01-12T14:51:41.127Z,8.60
2019-01-12T14:54:12.637Z,9.30
2019-01-12T14:56:44.367Z,6.57
2019-01-12T14:59:15.920Z,10.37
2019-01-12T15:01:48.520Z,8.20
2019-01-12T15:04:20.355Z,6.20
2019-01-12T15:06:51.911Z,9.57
2019-01-12T15:09:25.332Z,8.63
2019-01-12T15:11:57.161Z,9.47
2019-01-12T15:14:28.686Z,8.23
2019-01-12T15:17:00.284Z,7.63
2019-01-12T15:19:31.987Z,7.77
2019-01-12T15:22:03.383Z,6.73
2019-01-12T15:24:34.867Z,7.70
2019-01-12T15:27:06.743Z,7.80
2019-01-12T15:29:39.514Z,6.83
2019-01-12T15:32:11.131Z,7.27
2019-01-12T15:34:43.356Z,9.87
2019-01-12T15:37:16.195Z,9.27
2019-01-12T15:39:48.307Z,10.07
2019-01-12T15:42:19.934Z,6.67
2019-01-12T15:44:51.710Z,6.80
2019-01-12T15:47:23.201Z,11.13
2019-01-12T15:49:56.531Z,8.40
2019-01-12T15:52:28.717Z,7.17
2019-01-12T15:55:00.473Z,9.30
2019-01-12T15:57:32.605Z,7.10
2019-01-12T16:00:04.987Z,11.87
2019-01-12T16:02:40.010Z,6.53
2019-01-12T16:05:09.834Z,11.23
2019-01-12T16:07:42.337Z,5.77
2019-01-12T16:10:14.758Z,6.43
2019-01-12T16:12:46.427Z,11.03
2019-01-12T16:15:23.017Z,12.23
2019-01-12T16:17:54.949Z,9.60
2019-01-12T16:20:29.692Z,9.43
2019-01-12T16:23:03.024Z,10.30
2019-01-12T16:25:35.003Z,9.00
2019-01-12T16:28:06.632Z,8.20
2019-01-12T16:30:38.609Z,10.40
2019-01-12T16:33:12.794Z,8.67
2019-01-12T16:35:44.225Z,7.53
2019-01-12T16:38:15.755Z,8.20
2019-01-12T16:40:49.002Z,11.43
2019-01-12T16:43:20.918Z,6.43
2019-01-12T16:45:52.954Z,9.83
2019-01-12T16:48:24.658Z,8.80
2019-01-12T16:50:56.219Z,7.13
2019-01-12T16:53:28.019Z,9.43
2019-01-12T16:55:59.880Z,9.87
2019-01-12T16:58:32.024Z,11.00
2019-01-12T17:01:04.130Z,8.83
2019-01-12T17:03:35.745Z,7.73
2019-01-12T17:06:07.608Z,8.23
2019-01-12T17:08:40.781Z,8.67
2019-01-12T17:11:12.247Z,8.47
2019-01-12T17:13:43.781Z,11.40
2019-01-12T17:16:15.399Z,10.57
2019-01-12T17:18:46.939Z,7.63
2019-01-12T17:21:18.718Z,7.80
2019-01-12T17:23:50.669Z,7.70
2019-01-12T17:26:22.281Z,7.60
2019-01-12T17:28:53.617Z,5.83
2019-01-12T17:31:25.936Z,13.60
2019-01-12T17:33:57.849Z,15.47
2019-01-12T17:36:30.751Z,8.37
2019-01-12T17:39:02.537Z,7.83
2019-01-12T17:41:34.522Z,10.37
2019-01-12T17:44:06.415Z,13.17
2019-01-12T17:46:38.255Z,9.93
2019-01-12T17:49:10.225Z,8.57
2019-01-12T17:51:41.798Z,10.23
2019-01-12T17:54:13.138Z,8.40
2019-01-12T17:56:44.502Z,8.13
2019-01-12T17:59:16.390Z,7.33
2019-01-12T18:01:49.344Z,5.67
2019-01-12T18:04:21.539Z,10.13
2019-01-12T18:06:54.356Z,9.50
2019-01-12T18:09:26.796Z,6.73
2019-01-12T18:11:58.599Z,7.90
2019-01-12T18:14:30.594Z,7.53
2019-01-12T18:17:02.131Z,10.23
2019-01-12T18:19:33.621Z,7.83
2019-01-12T18:22:06.080Z,7.50
2019-01-12T18:24:37.631Z,9.00
2019-01-12T18:27:09.242Z,7.50
2019-01-12T18:29:41.996Z,8.03
2019-01-12T18:32:14.547Z,9.90
2019-01-12T18:34:46.414Z,7.43
2019-01-12T18:37:17.829Z,9.73
2019-01-12T18:39:49.377Z,7.07
2019-01-12T18:42:21.359Z,8.03
2019-01-12T18:44:53.332Z,8.53
2019-01-12T18:47:24.790Z,8.53
2019-01-12T18:49:57.451Z,6.07
2019-01-12T18:52:28.832Z,11.37
2019-01-12T18:55:00.818Z,16.10
2019-01-12T18:57:32.848Z,18.20
2019-01-12T19:00:05.126Z,7.27
2019-01-12T19:02:36.924Z,4.83
2019-01-12T19:05:10.716Z,5.37
2019-01-12T19:07:42.740Z,8.97
2019-01-12T19:10:15.646Z,7.37
2019-01-12T19:12:49.006Z,8.00
2019-01-12T19:15:29.090Z,8.03
2019-01-12T19:18:00.905Z,10.47
2019-01-12T19:20:34.460Z,8.80
2019-01-12T19:23:06.173Z,6.80
2019-01-12T19:25:38.786Z,6.33
2019-01-12T19:28:10.623Z,6.90
2019-01-12T19:30:42.382Z,6.03
2019-01-12T19:33:14.106Z,7.07
2019-01-12T19:35:45.607Z,8.10
2019-01-12T19:38:17.008Z,6.87
2019-01-12T19:40:49.054Z,9.63
2019-01-12T19:43:21.559Z,6.10
2019-01-12T19:45:52.960Z,3.83
2019-01-12T19:48:24.351Z,8.20
2019-01-12T19:50:55.848Z,7.10
2019-01-12T19:53:27.838Z,5.23
2019-01-12T19:55:59.260Z,6.13
2019-01-12T19:58:31.856Z,5.57
2019-01-12T20:01:03.673Z,5.87
2019-01-12T20:03:35.248Z,6.47
2019-01-12T20:06:07.525Z,6.83
2019-01-12T20:08:39.062Z,5.83
2019-01-12T20:11:10.416Z,7.40
2019-01-12T20:13:42.987Z,7.30
2019-01-12T20:16:14.384Z,5.07
2019-01-12T20:18:45.934Z,7.57
2019-01-12T20:21:18.995Z,7.10
2019-01-12T20:23:50.554Z,5.37
2019-01-12T20:26:22.356Z,5.47
2019-01-12T20:28:54.596Z,5.07
2019-01-12T20:32:03.118Z,8.10
2019-01-12T20:34:43.117Z,5.83
2019-01-12T20:38:00.263Z,5.47
2019-01-12T20:40:56.584Z,6.67
2019-01-12T20:44:28.283Z,6.83
2019-01-12T20:47:23.291Z,7.00
2019-01-12T20:50:38.523Z,5.93
2019-01-12T20:53:34.969Z,8.03
2019-01-12T20:56:31.943Z,7.63
2019-01-12T20:59:37.486Z,6.00
2019-01-12T21:02:51.009Z,5.53
2019-01-12T21:06:17.611Z,6.60
2019-01-12T21:09:17.721Z,8.40
2019-01-12T21:12:40.797Z,8.30
2019-01-12T21:15:20.356Z,5.37
2019-01-12T21:17:51.764Z,6.10
2019-01-12T21:20:23.852Z,4.53
2019-01-12T21:22:55.307Z,7.07
2019-01-12T21:25:27.197Z,5.83
2019-01-12T21:28:03.340Z,5.63
2019-01-12T21:30:35.586Z,6.13
2019-01-12T21:33:08.285Z,6.43
2019-01-12T21:35:40.677Z,8.17
2019-01-12T21:38:12.426Z,4.77
2019-01-12T21:40:43.802Z,6.87
2019-01-12T21:43:15.391Z,7.73
2019-01-12T21:45:46.985Z,5.20
2019-01-12T21:48:18.539Z,9.73
2019-01-12T21:50:50.319Z,6.97
2019-01-12T21:53:22.201Z,10.83
2019-01-12T21:55:53.779Z,5.23
2019-01-12T21:58:25.536Z,5.63
2019-01-12T22:00:57.302Z,8.90
2019-01-12T22:03:32.324Z,7.63
2019-01-12T22:06:04.170Z,6.57
2019-01-12T22:08:38.594Z,6.27
2019-01-12T22:11:11.398Z,8.70
2019-01-12T22:13:43.373Z,10.03
2019-01-12T22:16:15.133Z,7.93
2019-01-12T22:18:47.024Z,5.33
2019-01-12T22:21:18.781Z,16.70
2019-01-12T22:23:50.411Z,6.77
2019-01-12T22:26:22.029Z,7.73
2019-01-12T22:28:54.238Z,7.97
2019-01-12T22:31:25.835Z,11.33
2019-01-12T22:33:57.336Z,8.80
2019-01-12T22:36:28.884Z,7.53
2019-01-12T22:39:00.558Z,6.53
2019-01-12T22:41:32.278Z,6.07
2019-01-12T22:44:03.893Z,7.03
2019-01-12T22:46:35.566Z,5.20
2019-01-12T22:49:07.208Z,11.63
2019-01-12T22:51:39.868Z,6.50
2019-01-12T22:54:11.644Z,7.93
2019-01-12T22:56:42.956Z,9.80
2019-01-12T22:59:15.710Z,9.70
2019-01-12T23:01:54.651Z,8.10
2019-01-12T23:04:27.880Z,8.10
2019-01-12T23:07:00.581Z,8.07
2019-01-12T23:09:32.559Z,9.10
2019-01-12T23:12:03.905Z,10.27
2019-01-12T23:14:36.538Z,8.07
2019-01-12T23:17:08.095Z,10.53
2019-01-12T23:19:40.361Z,12.23
2019-01-12T23:22:12.631Z,10.57
2019-01-12T23:24:46.414Z,7.33
2019-01-12T23:27:17.849Z,9.50
2019-01-12T23:29:53.420Z,12.57
2019-01-12T23:32:25.087Z,13.67
2019-01-12T23:34:56.584Z,12.63
2019-01-12T23:37:28.421Z,12.17
2019-01-12T23:40:00.359Z,11.70
2019-01-12T23:42:32.058Z,12.77
2019-01-12T23:45:07.834Z,12.80
2019-01-12T23:47:39.319Z,12.90
2019-01-12T23:50:10.871Z,12.83
2019-01-12T23:52:42.292Z,9.43
2019-01-12T23:55:14.622Z,11.20
2019-01-12T23:57:46.101Z,11.33
